Terminal Aerodrome Forecast
Issued by NWS

Home | Current Version | Previous Version | Text Only | Print | Product List | Glossary On
Versions: 1 2 3 4 5 6 7 8 9 10 11 12 13 14 15 16
000
FTUS45 KRIW 182038 AAA
TAFBPI
TAF AMD
KBPI 182038Z 1821/1918 VRB12G20KT P6SM VCSH SCT120 BKN150
     FM190200 30007KT P6SM FEW120
     FM190700 VRB04KT P6SM FEW120=

USA.gov is the U.S. government's official web portal to all federal, state and local government web resources and services.